Time;durP1;ratioP1;P1;durP2;ratioP2;P2;SDS_P1;SDS_P2;PMS_P1;PMS_P2;Temp;Humidity;BMP_temperature;BMP_pressure;BME280_temperature;BME280_humidity;BME280_pressure;Samples;Min_cycle;Max_cycle;Signal;HPM_P1;HPM_P2
2022/04/06 00:01:09;;;;;;;3.67;1.63;;;;;;;20.50;36.14;101347.84;4208799;28;20040;-70
2022/04/06 00:03:11;;;;;;;3.97;1.80;;;;;;;20.51;36.40;101351.47;4209016;28;20028;-71
2022/04/06 00:05:12;;;;;;;2.35;1.50;;;;;;;20.51;36.18;101343.13;4197683;28;20045;-71
2022/04/06 00:07:19;;;;;;;1.80;1.30;;;;;;;20.47;36.44;101330.84;4206742;28;20040;-71
2022/04/06 00:09:24;;;;;;;2.03;1.38;;;;;;;20.43;36.24;101319.41;4206263;28;20105;-71
2022/04/06 00:11:31;;;;;;;2.45;1.30;;;;;;;20.42;36.15;101323.28;4212337;28;20036;-70
2022/04/06 00:13:32;;;;;;;1.63;1.50;;;;;;;20.50;36.60;101338.69;4211620;28;20040;-70
2022/04/06 00:15:34;;;;;;;2.15;1.30;;;;;;;20.49;36.46;101340.63;4214047;28;20441;-70
2022/04/06 00:17:40;;;;;;;4.10;1.67;;;;;;;20.50;36.19;101338.69;4208772;28;20114;-71
2022/04/06 00:19:41;;;;;;;;;;;;;;;20.48;36.30;101349.22;4201418;28;20043;-68
2022/04/06 00:21:45;;;;;;;1.95;1.65;;;;;;;20.52;36.04;101351.19;4199715;28;19916;-71
2022/04/06 00:23:46;;;;;;;3.03;1.90;;;;;;;20.49;36.60;101342.56;4197732;28;20044;-71
2022/04/06 00:25:48;;;;;;;1.77;1.42;;;;;;;20.51;36.24;101348.69;4206017;28;20106;-71
2022/04/06 00:27:55;;;;;;;3.67;1.50;;;;;;;20.47;36.41;101347.50;4217177;28;20113;-71
2022/04/06 00:29:57;;;;;;;3.55;1.70;;;;;;;20.47;36.47;101350.28;4213199;28;20036;-70
2022/04/06 00:32:02;;;;;;;1.85;1.73;;;;;;;20.50;36.50;101360.91;4199509;28;20090;-71
2022/04/06 00:34:04;;;;;;;1.80;1.27;;;;;;;20.45;36.37;101350.56;4203280;28;20078;-70
2022/04/06 00:36:05;;;;;;;3.95;1.50;;;;;;;20.47;36.36;101355.84;4197628;28;20029;-72
2022/04/06 00:38:07;;;;;;;1.70;1.50;;;;;;;20.46;36.70;101354.19;4201817;28;20071;-69
2022/04/06 00:40:19;;;;;;;3.35;1.70;;;;;;;20.47;36.53;101359.50;4201044;28;20040;-72
2022/04/06 00:42:26;;;;;;;1.80;1.33;;;;;;;20.36;36.37;101335.50;4202042;28;20024;-71
2022/04/06 00:44:29;;;;;;;4.43;1.77;;;;;;;20.45;36.45;101349.72;4203695;28;20040;-70
2022/04/06 00:46:30;;;;;;;2.85;1.83;;;;;;;20.50;36.73;101355.34;4212858;28;20040;-71
2022/04/06 00:48:36;;;;;;;2.05;1.65;;;;;;;20.46;36.47;101338.34;4213275;28;20048;-70
2022/04/06 00:50:56;;;;;;;2.10;1.65;;;;;;;20.48;36.29;101338.09;4212908;28;20033;-70
2022/04/06 00:52:58;;;;;;;1.73;1.42;;;;;;;20.47;36.63;101328.06;4198907;28;20040;-69
2022/04/06 00:55:00;;;;;;;2.40;1.73;;;;;;;20.48;36.67;101335.31;4217328;28;20109;-71
2022/04/06 00:57:02;;;;;;;4.20;1.60;;;;;;;20.35;36.56;101313.53;4215293;28;20040;-70
2022/04/06 00:59:04;;;;;;;2.15;1.60;;;;;;;20.33;36.29;101307.41;4214173;28;20044;-71
2022/04/06 01:01:05;;;;;;;3.80;2.03;;;;;;;20.47;36.49;101325.28;4216877;28;20048;-71
2022/04/06 01:03:07;;;;;;;1.73;1.60;;;;;;;20.39;36.17;101320.22;4218778;28;20062;-71
2022/04/06 01:05:19;;;;;;;2.65;1.60;;;;;;;20.47;36.42;101330.84;4214305;28;20070;-71
2022/04/06 01:07:24;;;;;;;2.53;1.52;;;;;;;20.47;36.26;101337.25;4207960;28;20180;-71
2022/04/06 01:09:27;;;;;;;3.58;1.70;;;;;;;20.47;36.53;101328.06;4223615;28;20016;-70
2022/04/06 01:11:30;;;;;;;2.60;1.67;;;;;;;20.44;36.31;101317.50;4217139;28;20036;-70
2022/04/06 01:13:32;;;;;;;1.58;1.48;;;;;;;20.48;36.51;101321.41;4221459;28;20040;-71
2022/04/06 01:15:33;;;;;;;3.17;1.50;;;;;;;20.43;36.31;101296.34;4221247;28;20062;-71
2022/04/06 01:17:36;;;;;;;2.25;1.63;;;;;;;20.42;36.10;101272.44;4208336;28;20071;-71
2022/04/06 01:19:39;;;;;;;1.60;1.50;;;;;;;20.45;36.29;101258.00;4200383;28;20045;-72
2022/04/06 01:21:41;;;;;;;2.65;1.77;;;;;;;20.50;36.46;101263.63;4201520;28;20494;-71
2022/04/06 01:23:43;;;;;;;3.05;1.65;;;;;;;20.51;36.43;101299.47;4206348;28;20028;-70
2022/04/06 01:26:02;;;;;;;4.10;1.60;;;;;;;20.51;36.48;101337.56;4218191;28;20032;-70
2022/04/06 01:28:04;;;;;;;3.53;1.55;;;;;;;20.53;36.39;101352.06;4223032;28;20141;-70
2022/04/06 01:30:07;;;;;;;4.47;1.63;;;;;;;20.53;36.17;101354.84;4221344;28;20093;-70
2022/04/06 01:32:26;;;;;;;3.05;1.60;;;;;;;20.51;36.48;101355.06;4217183;28;20024;-70
2022/04/06 01:34:27;;;;;;;2.67;1.73;;;;;;;20.52;36.64;101339.22;4218115;28;20326;-70
2022/04/06 01:36:29;;;;;;;1.92;1.60;;;;;;;20.52;36.12;101333.66;4220141;28;20435;-70
2022/04/06 01:38:31;;;;;;;4.10;1.75;;;;;;;20.49;36.61;101323.13;4221859;28;20455;-70
2022/04/06 01:40:33;;;;;;;3.25;1.55;;;;;;;20.42;36.58;101283.56;4220759;28;20032;-70
2022/04/06 01:42:34;;;;;;;2.03;1.67;;;;;;;20.40;36.31;101278.28;4217380;28;20086;-71
2022/04/06 01:44:44;;;;;;;2.72;1.55;;;;;;;20.50;36.36;101286.69;4221030;28;20090;-69
2022/04/06 01:46:48;;;;;;;3.00;1.63;;;;;;;20.52;36.32;101278.06;4220490;28;20085;-70
2022/04/06 01:53:31;;;;;;;2.35;1.67;;;;;;;20.54;36.37;101273.09;4219633;28;20103;-70
2022/04/06 01:55:32;;;;;;;3.65;1.65;;;;;;;20.47;36.30;101251.09;4209397;28;20059;-70
2022/04/06 01:57:36;;;;;;;2.40;1.55;;;;;;;20.54;36.19;101259.19;4200617;28;20165;-70
2022/04/06 01:59:41;;;;;;;2.55;1.80;;;;;;;20.53;36.46;101251.97;4200658;28;20044;-70
2022/04/06 02:01:43;;;;;;;3.20;1.70;;;;;;;20.49;36.31;101245.28;4216798;28;20052;-70
2022/04/06 02:03:45;;;;;;;1.92;1.63;;;;;;;20.55;36.38;101238.63;4207188;28;20045;-69
2022/04/06 02:05:46;;;;;;;3.25;1.60;;;;;;;20.49;36.42;101232.22;4199494;28;20033;-69
2022/04/06 02:07:48;;;;;;;1.92;1.63;;;;;;;20.51;36.51;101226.38;4214981;28;20125;-69
2022/04/06 02:09:49;;;;;;;2.00;1.60;;;;;;;20.44;36.18;101221.03;4216201;28;20024;-69
2022/04/06 02:11:51;;;;;;;3.15;1.73;;;;;;;20.49;36.43;101211.91;4216720;28;20024;-70
2022/04/06 02:13:58;;;;;;;3.05;1.67;;;;;;;20.54;36.25;101214.72;4214165;28;20128;-70
2022/04/06 02:15:59;;;;;;;5.20;1.70;;;;;;;20.45;36.48;101188.50;4206846;28;20102;-70
2022/04/06 02:18:01;;;;;;;3.22;1.70;;;;;;;20.55;36.23;101202.47;4199827;28;20033;-69
2022/04/06 02:20:03;;;;;;;2.15;1.50;;;;;;;20.55;36.63;101196.91;4199931;28;20090;-69
2022/04/06 02:22:06;;;;;;;1.50;1.30;;;;;;;20.55;36.24;101186.63;4199758;28;20044;-69
2022/04/06 02:24:07;;;;;;;2.25;1.95;;;;;;;20.56;36.48;101179.13;4206341;28;20024;-71
2022/04/06 02:26:08;;;;;;;3.55;1.60;;;;;;;20.35;36.11;101128.16;4216556;28;20049;-70
2022/04/06 02:28:10;;;;;;;5.95;1.98;;;;;;;20.55;36.60;101160.78;4215880;28;20536;-69
2022/04/06 02:30:17;;;;;;;3.67;1.65;;;;;;;20.46;36.30;101140.13;4216367;28;20113;-71
2022/04/06 02:32:18;;;;;;;2.22;1.40;;;;;;;20.49;36.45;101134.06;4211658;28;20043;-69
2022/04/06 02:34:20;;;;;;;3.47;1.90;;;;;;;20.52;36.14;101144.63;4213432;28;20086;-70
2022/04/06 02:36:21;;;;;;;3.40;1.70;;;;;;;20.57;36.52;101152.97;4214731;28;20037;-69
2022/04/06 02:38:22;;;;;;;3.10;1.85;;;;;;;20.52;36.60;101139.06;4199437;28;20418;-69
2022/04/06 02:40:24;;;;;;;4.22;1.83;;;;;;;20.58;36.27;101149.13;4198761;28;20089;-69
2022/04/06 02:42:25;;;;;;;3.78;2.00;;;;;;;20.23;36.51;101089.47;4198586;28;20040;-69
2022/04/06 02:44:27;;;;;;;2.10;1.60;;;;;;;20.58;36.60;101143.56;4198879;28;20125;-71
2022/04/06 02:46:28;;;;;;;3.40;2.22;;;;;;;20.40;36.55;101099.53;4215134;28;20036;-69
2022/04/06 02:48:30;;;;;;;3.50;1.90;;;;;;;20.57;36.78;101125.19;4215826;28;20425;-68
2022/04/06 02:50:32;;;;;;;4.07;1.52;;;;;;;20.58;36.77;101138.00;4215887;28;20527;-69
2022/04/06 02:52:33;;;;;;;3.47;1.67;;;;;;;20.51;36.54;101129.91;4215724;28;20036;-70
2022/04/06 02:54:35;;;;;;;2.42;1.90;;;;;;;20.55;36.57;101144.09;4213830;28;20040;-69
2022/04/06 02:56:36;;;;;;;2.38;1.67;;;;;;;20.59;36.67;101142.44;4215398;28;20044;-70
2022/04/06 02:58:38;;;;;;;2.20;1.73;;;;;;;20.60;36.54;101137.72;4215721;28;20016;-69
2022/04/06 03:00:39;;;;;;;5.07;1.95;;;;;;;20.50;36.54;101107.94;4204116;28;20110;-69
2022/04/06 03:02:41;;;;;;;2.80;1.80;;;;;;;20.58;36.47;101121.31;4210765;28;20115;-70
2022/04/06 03:04:45;;;;;;;2.38;1.90;;;;;;;20.60;36.35;101123.81;4211609;28;20421;-68
2022/04/06 03:06:47;;;;;;;3.63;1.75;;;;;;;20.62;37.02;101116.88;4198740;28;20098;-70
2022/04/06 03:08:49;;;;;;;3.08;1.65;;;;;;;20.56;36.73;101104.06;4199704;28;20357;-68
2022/04/06 03:10:51;;;;;;;3.38;1.60;;;;;;;20.62;36.50;101116.88;4198753;28;20036;-69
2022/04/06 03:12:52;;;;;;;2.42;1.60;;;;;;;20.58;36.84;101115.75;4197900;28;20037;-69
2022/04/06 03:14:54;;;;;;;3.22;1.75;;;;;;;20.53;36.89;101101.84;4213723;28;20544;-70
2022/04/06 03:16:56;;;;;;;3.30;2.00;;;;;;;20.57;37.16;101108.50;4201078;28;20044;-71
2022/04/06 03:18:58;;;;;;;3.13;1.90;;;;;;;20.65;37.20;101115.47;4215640;28;20039;-70
2022/04/06 03:21:00;;;;;;;2.33;1.90;;;;;;;20.65;37.47;101115.47;4200924;28;20040;-69
2022/04/06 03:23:03;;;;;;;7.28;2.08;;;;;;;20.65;37.14;101110.75;4200358;28;20102;-68
2022/04/06 03:25:05;;;;;;;4.65;1.90;;;;;;;20.61;37.21;101092.94;4198368;28;20032;-69
2022/04/06 03:27:06;;;;;;;2.83;2.00;;;;;;;20.64;37.27;101109.06;4198351;28;20082;-68
2022/04/06 03:29:16;;;;;;;2.45;1.80;;;;;;;20.66;37.40;101112.41;4199264;28;20020;-69
2022/04/06 03:31:18;;;;;;;2.70;1.90;;;;;;;20.66;37.46;101100.44;4206156;28;20405;-69
2022/04/06 03:33:22;;;;;;;3.70;1.90;;;;;;;20.60;37.39;101085.72;4203753;28;20040;-69
2022/04/06 03:35:23;;;;;;;2.88;1.73;;;;;;;20.65;37.57;101082.94;4198621;28;20036;-70
2022/04/06 03:37:25;;;;;;;3.78;1.90;;;;;;;20.60;37.06;101074.59;4198874;28;20070;-70
2022/04/06 03:39:26;;;;;;;4.65;2.17;;;;;;;20.62;37.72;101077.94;4197772;28;20471;-71
2022/04/06 03:41:27;;;;;;;2.97;2.00;;;;;;;20.62;37.34;101066.81;4197869;28;20074;-70
2022/04/06 03:43:31;;;;;;;2.08;1.65;;;;;;;20.58;37.63;101060.16;4198316;28;20064;-70
2022/04/06 03:45:33;;;;;;;5.05;2.17;;;;;;;20.63;37.26;101073.22;4198048;28;20033;-70
2022/04/06 03:47:36;;;;;;;5.78;2.03;;;;;;;20.60;37.43;101066.25;4200587;28;20028;-69
2022/04/06 03:49:37;;;;;;;4.53;1.92;;;;;;;20.54;37.81;101061.81;4197268;28;20052;-68
2022/04/06 03:51:38;;;;;;;3.80;1.70;;;;;;;20.62;37.42;101083.50;4198627;28;20021;-68
2022/04/06 03:53:40;;;;;;;3.83;2.40;;;;;;;20.61;37.61;101064.31;4199327;28;20479;-70
2022/04/06 03:55:41;;;;;;;2.88;1.95;;;;;;;20.60;37.47;101035.66;4214181;28;20036;-70
2022/04/06 03:57:43;;;;;;;3.72;1.95;;;;;;;20.63;37.49;101029.56;4214494;28;20097;-70
2022/04/06 03:59:47;;;;;;;3.38;2.50;;;;;;;20.56;37.75;101007.56;4215023;28;20036;-71
2022/04/06 04:01:49;;;;;;;4.13;1.92;;;;;;;20.43;37.42;100962.78;4213774;28;20540;-69
2022/04/06 04:03:53;;;;;;;3.72;2.10;;;;;;;20.62;37.75;101005.66;4212719;28;20032;-70
2022/04/06 04:05:55;;;;;;;2.63;2.17;;;;;;;20.57;37.57;100991.72;4204630;28;20081;-68
2022/04/06 04:07:56;;;;;;;4.07;1.95;;;;;;;20.56;37.80;100995.63;4198123;28;20410;-70
2022/04/06 04:09:58;;;;;;;3.08;1.83;;;;;;;20.61;37.75;101003.97;4197999;28;20037;-69
2022/04/06 04:12:00;;;;;;;3.78;2.00;;;;;;;20.52;37.80;100973.09;4198303;28;20032;-69
2022/04/06 04:14:05;;;;;;;3.45;1.92;;;;;;;20.62;37.76;100991.75;4195862;28;20098;-70
2022/04/06 04:16:06;;;;;;;2.75;2.00;;;;;;;20.62;37.67;100983.41;4196967;28;20182;-69
2022/04/06 04:18:12;;;;;;;3.17;1.92;;;;;;;20.58;37.44;100978.69;4198458;28;20086;-69
2022/04/06 04:20:14;;;;;;;3.90;2.15;;;;;;;20.54;37.70;100975.63;4196948;28;20040;-69
2022/04/06 04:22:18;;;;;;;3.03;1.90;;;;;;;20.53;37.42;100973.97;4213331;28;20044;-70
2022/04/06 04:24:19;;;;;;;4.33;2.37;;;;;;;20.60;37.69;100985.63;4196877;28;20055;-70
2022/04/06 04:26:24;;;;;;;4.63;1.95;;;;;;;20.61;37.43;100981.72;4198289;28;20456;-70
2022/04/06 04:28:25;;;;;;;2.50;1.80;;;;;;;20.62;37.82;100972.28;4198098;28;20471;-69
2022/04/06 04:30:27;;;;;;;2.47;2.17;;;;;;;20.57;37.47;100958.38;4197820;28;20032;-69
2022/04/06 04:32:28;;;;;;;4.07;1.80;;;;;;;20.58;37.53;100951.72;4196829;28;20066;-71
2022/04/06 04:34:30;;;;;;;2.17;1.67;;;;;;;20.51;37.88;100937.25;4197568;28;20045;-69
2022/04/06 04:36:34;;;;;;;4.10;2.70;;;;;;;20.61;37.72;100948.34;4197551;28;20564;-69
2022/04/06 04:38:36;;;;;;;3.20;1.80;;;;;;;20.61;37.43;100962.25;4197598;28;20041;-69
2022/04/06 04:40:38;;;;;;;5.38;1.98;;;;;;;20.61;37.69;100942.78;4197643;28;20040;-69
2022/04/06 04:42:42;;;;;;;3.45;1.88;;;;;;;20.61;37.46;100951.13;4200492;28;20028;-69
2022/04/06 04:44:46;;;;;;;4.40;2.13;;;;;;;20.50;37.73;100927.25;4200717;28;20044;-68
2022/04/06 04:46:47;;;;;;;3.10;1.80;;;;;;;20.60;37.67;100946.69;4201415;28;20463;-68
2022/04/06 04:48:49;;;;;;;2.10;1.90;;;;;;;20.61;37.75;100948.34;4200037;28;20307;-69
2022/04/06 04:50:53;;;;;;;3.33;1.60;;;;;;;20.60;37.57;100930.00;4201553;28;20028;-69
2022/04/06 04:52:55;;;;;;;1.73;1.60;;;;;;;20.60;37.67;100946.69;4201250;28;20036;-68
2022/04/06 04:54:56;;;;;;;2.45;1.50;;;;;;;20.51;37.47;100924.19;4211550;28;20032;-68
2022/04/06 04:56:57;;;;;;;2.10;1.70;;;;;;;20.60;37.43;100946.69;4207111;28;20040;-70
2022/04/06 04:58:59;;;;;;;2.38;1.63;;;;;;;20.61;37.45;100947.53;4202133;28;20032;-69
2022/04/06 05:01:01;;;;;;;3.05;1.75;;;;;;;20.62;37.46;100957.53;4205116;28;20108;-70
2022/04/06 05:03:05;;;;;;;2.05;1.77;;;;;;;20.57;37.46;100941.69;4205915;28;20090;-70
2022/04/06 05:05:08;;;;;;;3.63;2.22;;;;;;;20.57;37.63;100936.13;4201711;28;20483;-70
2022/04/06 05:07:10;;;;;;;5.03;2.05;;;;;;;20.56;37.57;100935.28;4216694;28;20032;-69
2022/04/06 05:09:11;;;;;;;3.10;1.90;;;;;;;20.60;37.73;100923.63;4206677;28;20036;-70
2022/04/06 05:11:18;;;;;;;3.25;1.92;;;;;;;20.59;37.58;100913.63;4203052;28;20041;-69
2022/04/06 05:13:22;;;;;;;3.78;1.95;;;;;;;20.59;37.50;100906.13;4200189;28;20097;-70
2022/04/06 05:15:24;;;;;;;2.45;1.90;;;;;;;20.58;37.79;100907.25;4213886;28;20085;-69
2022/04/06 05:17:28;;;;;;;2.10;1.90;;;;;;;20.59;37.45;100905.28;4217511;28;20413;-69
2022/04/06 05:19:30;;;;;;;1.70;1.48;;;;;;;20.50;37.51;100886.38;4217142;28;20032;-69
2022/04/06 05:21:31;;;;;;;2.17;1.60;;;;;;;20.58;37.83;100898.06;4217492;28;20048;-69
2022/04/06 05:23:35;;;;;;;2.85;1.70;;;;;;;20.48;37.62;100879.41;4217653;28;20032;-69
2022/04/06 05:25:37;;;;;;;2.25;1.73;;;;;;;20.58;37.43;100887.78;4216341;28;20074;-71
2022/04/06 05:27:55;;;;;;;2.30;1.70;;;;;;;20.46;37.71;100863.00;4201477;28;20453;-69
2022/04/06 05:29:57;;;;;;;1.63;1.52;;;;;;;20.58;37.85;100882.22;4199876;28;21079;-69
2022/04/06 05:32:02;;;;;;;2.92;1.83;;;;;;;20.56;37.65;100873.31;4200502;28;20078;-69
2022/04/06 05:34:07;;;;;;;2.83;1.73;;;;;;;20.57;37.33;100874.97;4209641;28;20040;-70
2022/04/06 05:36:08;;;;;;;2.30;1.90;;;;;;;20.58;37.43;100865.53;4215411;28;20040;-68
2022/04/06 05:38:10;;;;;;;2.67;1.90;;;;;;;20.57;37.84;100858.28;4214635;28;20043;-69
2022/04/06 05:40:23;;;;;;;1.63;1.48;;;;;;;20.57;37.76;100866.63;4205605;28;20113;-69
2022/04/06 05:42:24;;;;;;;3.10;1.80;;;;;;;20.56;37.38;100851.06;4214633;28;20036;-70
2022/04/06 05:44:26;;;;;;;3.33;1.52;;;;;;;20.56;37.69;100845.50;4216711;28;20093;-68
2022/04/06 05:46:31;;;;;;;1.88;1.73;;;;;;;20.52;37.63;100833.28;4200696;28;20102;-70
2022/04/06 05:48:35;;;;;;;1.58;1.48;;;;;;;20.52;37.27;100830.50;4199712;28;20098;-70
2022/04/06 05:50:40;;;;;;;3.50;1.87;;;;;;;20.56;37.37;100823.25;4199961;28;20036;-69
2022/04/06 05:52:42;;;;;;;1.60;1.45;;;;;;;20.54;37.32;100808.81;4199685;28;20737;-70
2022/04/06 05:54:44;;;;;;;2.30;1.65;;;;;;;20.51;37.52;100790.75;4199747;28;20085;-69
2022/04/06 05:56:45;;;;;;;1.73;1.63;;;;;;;20.55;37.32;100797.41;4200591;28;20085;-68
2022/04/06 05:58:49;;;;;;;2.80;1.88;;;;;;;20.56;37.33;100795.47;4216108;28;20042;-69
2022/04/06 06:00:54;;;;;;;2.13;1.40;;;;;;;20.50;37.75;100785.47;4216479;28;20097;-70
2022/04/06 06:02:58;;;;;;;3.10;1.60;;;;;;;20.49;37.42;100784.66;4215817;28;20070;-70
2022/04/06 06:04:59;;;;;;;3.20;1.42;;;;;;;20.55;37.25;100788.25;4215776;28;20334;-70
2022/04/06 06:07:01;;;;;;;1.88;1.58;;;;;;;20.46;37.36;100773.22;4216032;28;20057;-70
2022/04/06 06:09:02;;;;;;;4.63;1.70;;;;;;;20.53;37.49;100777.41;4209977;28;20041;-69
2022/04/06 06:11:04;;;;;;;4.13;1.58;;;;;;;20.54;37.37;100769.91;4199760;28;20477;-69
2022/04/06 06:13:06;;;;;;;1.50;1.40;;;;;;;20.55;37.64;100768.78;4199654;28;20078;-69
2022/04/06 06:15:08;;;;;;;2.33;1.95;;;;;;;20.54;37.41;100764.34;4199391;28;20078;-69
2022/04/06 06:17:09;;;;;;;1.40;1.30;;;;;;;20.49;37.53;100756.03;4199485;28;20036;-69
2022/04/06 06:19:11;;;;;;;3.00;1.83;;;;;;;20.54;37.48;100772.69;4199524;28;20478;-69
2022/04/06 06:21:12;;;;;;;2.90;1.52;;;;;;;20.44;37.60;100754.06;4199169;28;20036;-69
2022/04/06 06:23:14;;;;;;;6.57;1.60;;;;;;;20.53;37.33;100771.03;4199459;28;20044;-70
2022/04/06 06:25:18;;;;;;;1.58;1.48;;;;;;;20.53;37.65;100765.47;4198750;28;20040;-70
2022/04/06 06:27:25;;;;;;;2.47;1.63;;;;;;;20.49;37.48;100745.75;4198644;28;20033;-70
2022/04/06 06:29:27;;;;;;;2.38;1.50;;;;;;;20.53;37.35;100757.13;4198921;28;20540;-68
2022/04/06 06:31:28;;;;;;;1.27;1.17;;;;;;;20.53;37.72;100749.63;4194201;28;20117;-69
2022/04/06 06:33:30;;;;;;;1.58;1.23;;;;;;;20.47;37.70;100730.41;4201086;28;20032;-70
2022/04/06 06:35:31;;;;;;;1.40;1.20;;;;;;;20.53;37.69;100732.09;4215015;28;20544;-70
2022/04/06 06:37:36;;;;;;;1.75;1.20;;;;;;;20.48;37.52;100727.41;4216240;28;20348;-69
2022/04/06 06:39:43;;;;;;;1.73;1.50;;;;;;;20.48;37.35;100720.97;4215996;28;20024;-69
2022/04/06 06:41:45;;;;;;;1.67;1.40;;;;;;;20.52;37.64;100717.34;4216010;28;20368;-69
2022/04/06 06:43:48;;;;;;;1.92;1.45;;;;;;;20.52;37.37;100699.84;4215407;28;20440;-69
2022/04/06 06:45:50;;;;;;;1.48;1.10;;;;;;;20.52;37.47;100694.28;4210895;28;20024;-69
2022/04/06 06:47:51;;;;;;;1.30;1.20;;;;;;;20.52;37.39;100692.34;4200260;28;20400;-69
2022/04/06 06:49:56;;;;;;;1.95;1.20;;;;;;;20.50;37.33;100686.25;4200034;28;20025;-70
2022/04/06 06:52:00;;;;;;;3.33;1.50;;;;;;;20.51;37.37;100678.72;4199915;28;20090;-70
2022/04/06 06:54:01;;;;;;;1.30;1.20;;;;;;;20.48;37.52;100680.16;4215485;28;20074;-69
2022/04/06 06:56:05;;;;;;;1.50;1.40;;;;;;;20.36;37.64;100654.59;4200252;28;20053;-70
2022/04/06 06:58:07;;;;;;;1.90;1.10;;;;;;;20.52;37.40;100678.44;4198361;28;20075;-69
2022/04/06 07:00:11;;;;;;;1.40;1.23;;;;;;;20.50;37.47;100675.13;4200043;28;20033;-69
2022/04/06 07:02:12;;;;;;;1.40;1.10;;;;;;;20.48;37.22;100665.41;4204298;28;20044;-69
2022/04/06 07:04:17;;;;;;;1.77;1.40;;;;;;;20.51;37.59;100670.41;4214628;28;20292;-69
2022/04/06 07:06:19;;;;;;;1.38;1.13;;;;;;;20.51;37.56;100662.06;4215518;28;20020;-70
2022/04/06 07:08:26;;;;;;;1.88;1.23;;;;;;;20.50;37.21;100652.06;4215173;28;20031;-70
2022/04/06 07:10:32;;;;;;;1.23;1.00;;;;;;;20.49;37.43;100650.41;4215625;28;20032;-70
2022/04/06 07:12:33;;;;;;;1.25;1.08;;;;;;;20.47;37.36;100647.03;4214187;28;20081;-69
2022/04/06 07:14:37;;;;;;;1.33;1.23;;;;;;;20.49;37.58;100640.13;4215196;28;20035;-70
2022/04/06 07:16:38;;;;;;;1.60;0.98;;;;;;;20.51;37.77;100639.81;4214918;28;20089;-68
2022/04/06 07:18:40;;;;;;;1.83;1.10;;;;;;;20.47;37.31;100624.78;4214769;28;20036;-70
2022/04/06 07:20:41;;;;;;;2.25;1.15;;;;;;;20.50;37.24;100624.25;4215238;28;20093;-68
2022/04/06 07:22:42;;;;;;;1.65;1.00;;;;;;;20.47;37.50;100622.00;4215071;28;20036;-69
2022/04/06 07:24:47;;;;;;;1.35;1.17;;;;;;;20.49;37.69;100634.56;4214445;28;20045;-69
2022/04/06 07:26:48;;;;;;;2.70;1.03;;;;;;;20.50;37.64;100618.69;4215178;28;20028;-69
2022/04/06 07:28:49;;;;;;;2.55;1.02;;;;;;;20.47;37.47;100620.09;4215234;28;20077;-68
2022/04/06 07:30:51;;;;;;;1.60;1.27;;;;;;;20.49;37.40;100628.16;4215154;28;20028;-69
2022/04/06 07:32:53;;;;;;;1.10;0.98;;;;;;;20.47;37.35;100613.66;4213286;28;20040;-68
2022/04/06 07:34:54;;;;;;;2.35;1.13;;;;;;;20.49;37.68;100606.75;4212690;28;20488;-68
2022/04/06 07:36:55;;;;;;;1.02;0.93;;;;;;;20.49;37.37;100594.81;4197466;28;20048;-69
2022/04/06 07:38:58;;;;;;;1.00;0.80;;;;;;;20.50;37.53;100596.47;4197753;28;20476;-69
2022/04/06 07:40:59;;;;;;;0.90;0.90;;;;;;;20.50;37.57;100596.47;4197788;28;20110;-68
2022/04/06 07:43:04;;;;;;;1.08;0.98;;;;;;;20.48;37.38;100593.97;4197492;28;20438;-69
2022/04/06 07:45:07;;;;;;;1.00;0.90;;;;;;;20.50;37.33;100579.78;4197582;28;20036;-69
2022/04/06 07:47:09;;;;;;;1.60;0.90;;;;;;;20.51;37.41;100582.28;4197281;28;20094;-70
2022/04/06 07:49:13;;;;;;;1.73;0.73;;;;;;;20.50;37.27;100579.78;4197719;28;20114;-70
2022/04/06 07:51:14;;;;;;;1.10;1.00;;;;;;;20.49;37.46;100573.41;4198247;28;20106;-70
2022/04/06 07:53:18;;;;;;;2.17;0.73;;;;;;;20.45;37.38;100569.50;4197699;28;20048;-69
2022/04/06 07:55:23;;;;;;;1.13;0.90;;;;;;;20.50;37.11;100566.72;4206728;28;20077;-70
2022/04/06 07:57:25;;;;;;;1.17;1.00;;;;;;;20.50;37.57;100563.94;4215167;28;20172;-70
2022/04/06 07:59:29;;;;;;;1.58;1.00;;;;;;;20.42;37.43;100533.09;4212792;28;20101;-69
2022/04/06 08:01:31;;;;;;;1.58;0.90;;;;;;;20.49;37.51;100533.66;4213092;28;20028;-69
2022/04/06 08:03:32;;;;;;;1.00;0.90;;;;;;;20.42;37.23;100519.22;4203329;28;20037;-69
2022/04/06 08:05:35;;;;;;;0.93;0.70;;;;;;;20.37;37.33;100510.91;4214125;28;20036;-69
2022/04/06 08:07:39;;;;;;;0.73;0.73;;;;;;;20.50;37.61;100518.63;4214157;28;20039;-69
2022/04/06 08:09:41;;;;;;;1.07;0.70;;;;;;;20.41;37.54;100509.22;4210144;28;20475;-69
2022/04/06 08:11:42;;;;;;;0.90;0.70;;;;;;;20.43;37.44;100509.75;4203084;28;20298;-70
2022/04/06 08:13:43;;;;;;;1.17;1.00;;;;;;;20.50;37.53;100525.03;4197560;28;20044;-69
2022/04/06 08:15:45;;;;;;;1.67;1.13;;;;;;;20.50;37.52;100518.63;4210150;28;20441;-69
2022/04/06 08:17:50;;;;;;;1.33;0.82;;;;;;;20.50;37.22;100508.34;4211903;28;20042;-69
2022/04/06 08:19:51;;;;;;;0.57;0.57;;;;;;;20.47;37.50;100497.78;4211528;28;20341;-68
2022/04/06 08:21:53;;;;;;;1.23;0.70;;;;;;;20.50;37.56;100508.34;4212311;28;20070;-72
2022/04/06 08:23:54;;;;;;;1.90;0.75;;;;;;;20.46;37.40;100498.06;4210219;28;20090;-69
2022/04/06 08:25:58;;;;;;;0.95;0.88;;;;;;;20.49;37.42;100495.56;4207441;28;20059;-69
2022/04/06 08:28:00;;;;;;;0.65;0.65;;;;;;;20.47;37.35;100485.81;4225541;28;20467;-69
2022/04/06 08:30:03;;;;;;;0.90;0.77;;;;;;;20.50;37.28;100479.72;4229125;28;20040;-70
2022/04/06 08:32:05;;;;;;;0.85;0.70;;;;;;;20.50;37.52;100474.16;4226104;28;20025;-70
2022/04/06 08:34:06;;;;;;;0.98;0.55;;;;;;;20.50;37.34;100474.16;4222575;28;20040;-68
2022/04/06 08:36:09;;;;;;;0.98;0.85;;;;;;;20.48;37.23;100468.06;4225677;28;20066;-70
2022/04/06 08:38:15;;;;;;;0.98;0.70;;;;;;;20.48;37.66;100460.56;4220225;28;20093;-69
2022/04/06 08:40:17;;;;;;;0.85;0.80;;;;;;;20.49;37.33;100467.78;4217194;28;20101;-69
2022/04/06 08:42:19;;;;;;;0.88;0.60;;;;;;;20.50;37.24;100463.06;4215137;28;20036;-69
2022/04/06 08:44:21;;;;;;;0.55;0.55;;;;;;;20.49;37.50;100451.09;4214607;28;20047;-69
2022/04/06 08:46:22;;;;;;;0.80;0.80;;;;;;;20.50;37.08;100452.75;4196444;28;20101;-70
2022/04/06 08:48:30;;;;;;;1.10;0.63;;;;;;;20.47;37.26;100441.34;4215387;28;20050;-69
2022/04/06 08:50:34;;;;;;;0.85;0.50;;;;;;;20.49;37.61;100440.00;4215250;28;20512;-69
2022/04/06 08:52:40;;;;;;;1.10;0.80;;;;;;;20.44;37.21;100425.28;4214886;28;20089;-69
2022/04/06 08:54:41;;;;;;;0.68;0.50;;;;;;;20.50;37.37;100435.25;4214391;28;20062;-69
2022/04/06 08:56:43;;;;;;;0.50;0.50;;;;;;;20.47;37.51;100413.56;4214056;28;20501;-69
2022/04/06 08:58:44;;;;;;;0.70;0.50;;;;;;;20.45;37.54;100404.69;4214054;28;20482;-70
2022/04/06 09:00:48;;;;;;;0.75;0.50;;;;;;;20.32;37.52;100383.94;4209444;28;20044;-69
2022/04/06 09:02:50;;;;;;;1.17;0.68;;;;;;;20.49;37.44;100405.81;4198070;28;20087;-69
2022/04/06 09:04:55;;;;;;;0.63;0.63;;;;;;;20.36;37.12;100384.22;4197487;28;20047;-70
2022/04/06 09:07:07;;;;;;;1.10;0.60;;;;;;;20.46;37.20;100395.22;4208101;28;20092;-70
2022/04/06 09:09:09;;;;;;;0.75;0.52;;;;;;;20.41;37.72;100382.22;4197614;28;20418;-68
2022/04/06 09:11:13;;;;;;;0.45;0.45;;;;;;;20.45;37.16;100396.34;4196345;28;20094;-70
2022/04/06 09:13:20;;;;;;;0.63;0.50;;;;;;;20.47;37.41;100392.19;4214058;28;20544;-69
2022/04/06 09:15:23;;;;;;;0.63;0.63;;;;;;;20.40;37.59;100379.72;4213598;28;20454;-69
2022/04/06 09:17:26;;;;;;;1.08;0.60;;;;;;;20.48;37.30;100387.44;4214493;28;20467;-69
2022/04/06 09:19:29;;;;;;;0.88;0.60;;;;;;;20.49;37.35;100389.13;4214599;28;20028;-69
2022/04/06 09:21:33;;;;;;;0.60;0.60;;;;;;;20.49;37.34;100384.41;4213933;28;20040;-70
2022/04/06 09:23:35;;;;;;;0.60;0.60;;;;;;;20.49;37.42;100383.56;4212767;28;20118;-69
2022/04/06 09:25:38;;;;;;;0.47;0.47;;;;;;;20.48;37.57;100379.13;4196924;28;20036;-70
2022/04/06 09:27:46;;;;;;;0.40;0.40;;;;;;;20.48;37.30;100388.31;4197517;28;20032;-70
2022/04/06 09:29:50;;;;;;;0.57;0.40;;;;;;;20.48;37.21;100370.78;4200341;28;20025;-69
2022/04/06 09:31:55;;;;;;;1.02;0.50;;;;;;;20.35;37.45;100343.66;4200304;28;20025;-69
2022/04/06 09:33:58;;;;;;;0.65;0.50;;;;;;;20.45;37.42;100354.66;4199797;28;20033;-69
2022/04/06 09:36:02;;;;;;;0.80;0.50;;;;;;;20.47;37.72;100352.41;4199671;28;20044;-69